This is the latest recevied weather packets stored in our database for station/object N2UGS-WX. If no packets are shown the sender has not sent any weather packets the latest 10 day(s).
| Time | Temp. | Humidity | Pressure | Rain* | Wind** | Luminosity | Snow |
|---|---|---|---|---|---|---|---|
| 1777996502 | 16.67° C | 66% | 1005.8 hPa | 0 mm | - | - | - |
| 1777995602 | 17.22° C | 63% | 1005.4 hPa | 0 mm | - | - | - |
| 1777994702 | 18.89° C | 59% | 1004.4 hPa | 0 mm | - | - | - |
| 1777993802 | 18.33° C | 62% | 1004.4 hPa | 0 mm | - | - | - |
| 1777992902 | 17.78° C | 65% | 1004.1 hPa | 0 mm | - | - | - |
| 1777992002 | 17.22° C | 66% | 1004.1 hPa | 0 mm | - | - | - |
| 1777991402 | 17.78° C | 65% | 1004.1 hPa | 0 mm | - | - | - |
| 1777990503 | 17.78° C | 63% | 1004.1 hPa | 0 mm | - | - | - |
| 1777989002 | 17.78° C | 64% | 1004.1 hPa | 0 mm | - | - | - |
| 1777988103 | 17.22° C | 67% | 1003.7 hPa | 0 mm | - | - | - |
| 1777987202 | 16.11° C | 70% | 1003.7 hPa | 0 mm | - | - | - |
| 1777986303 | 16.11° C | 69% | 1004.1 hPa | 0 mm | - | - | - |
| 1777985643 | 17.22° C | 66% | 1003.4 hPa | 0 mm | - | - | - |
| 1777984802 | 18.33° C | 62% | 1003 hPa | 0 mm | - | - | - |
| 1777983902 | 19.44° C | 60% | 1002.7 hPa | 0 mm | - | - | - |
| 1777983002 | 18.89° C | 62% | 1002.7 hPa | 0 mm | - | - | - |
| 1777982102 | 18.33° C | 64% | 1002.4 hPa | 0 mm | - | - | - |
| 1777981203 | 18.33° C | 64% | 1002.4 hPa | 0 mm | - | - | - |
| 1777980302 | 18.33° C | 64% | 1002.4 hPa | 0 mm | - | - | - |
| 1777979403 | 17.78° C | 67% | 1002 hPa | 0 mm | - | - | - |
| 1777978802 | 17.78° C | 68% | 1002 hPa | 0 mm | - | - | - |
| 1777977302 | 17.22° C | 71% | 1001.7 hPa | 0 mm | - | - | - |
| 1777976403 | 16.67° C | 72% | 1001.4 hPa | 0.25 mm | - | - | - |
| 1777975802 | 16.67° C | 73% | 1001.4 hPa | 0.25 mm | - | - | - |
| 1777974902 | 16.11° C | 75% | 1001.4 hPa | 0.25 mm | - | - | - |
* Rain latest hour (hover to see other rain measurements)
** Current wind speed in m/s (hover to see current wind gust speed)